Time;durP1;ratioP1;P1;durP2;ratioP2;P2;SDS_P1;SDS_P2;PMS_P1;PMS_P2;Temp;Humidity;BMP_temperature;BMP_pressure;BME280_temperature;BME280_humidity;BME280_pressure;Samples;Min_cycle;Max_cycle;Signal;HPM_P1;HPM_P2
2023/02/02 00:01:24;;;;;;;22.13;2.22;;;;;;;3.49;100.00;99700.50;4882355;28;20064;-87
2023/02/02 00:04:39;;;;;;;22.92;3.00;;;5.10;99.90;;;3.44;100.00;99696.38;4902057;28;20066;-86
2023/02/02 00:07:06;;;;;;;16.40;2.20;;;;;;;3.36;100.00;99695.78;4878705;28;20044;-86
2023/02/02 00:10:11;;;;;;;20.58;2.65;;;;;;;3.26;100.00;99703.91;4942011;28;20035;-85
2023/02/02 00:12:37;;;;;;;12.73;2.70;;;4.90;99.90;;;3.21;100.00;99703.19;4896990;28;20183;-87
2023/02/02 00:15:17;;;;;;;11.45;2.53;;;;;;;3.20;100.00;99711.91;4861954;28;20079;-89
2023/02/02 00:17:46;;;;;;;16.35;1.58;;;4.90;99.90;;;3.20;100.00;99722.31;4896727;28;20044;-88
2023/02/02 00:20:21;;;;;;;14.82;2.00;;;;;;;3.14;100.00;99719.91;4862242;28;20027;-86
2023/02/02 00:22:46;;;;;;;7.07;1.75;;;4.80;99.90;;;3.10;100.00;99725.25;4841552;28;20039;-84
2023/02/02 00:25:48;;;;;;;11.30;1.73;;;4.80;99.90;;;3.07;100.00;99734.84;4912412;28;20059;-86
2023/02/02 00:28:35;;;;;;;9.30;2.03;;;;;;;3.05;100.00;99735.81;4898094;28;20035;-88
2023/02/02 00:31:07;;;;;;;14.73;1.70;;;;;;;3.02;100.00;99728.09;4906224;28;20043;-87
2023/02/02 00:33:58;;;;;;;10.05;1.33;;;4.70;99.90;;;2.99;100.00;99726.44;4865688;28;20052;-89
2023/02/02 00:36:25;;;;;;;9.75;1.73;;;;;;;2.98;100.00;99758.56;4846341;28;20045;-85
2023/02/02 00:39:01;;;;;;;;;;;;;;;;;;;;;
2023/02/02 00:41:28;;;;;;;11.43;1.85;;;4.60;99.90;;;2.94;100.00;99785.56;4867854;29;20873;-86
2023/02/02 00:47:16;;;;;;;9.38;1.90;;;;;;;2.92;100.00;99776.94;4841287;28;20470;-89
2023/02/02 00:49:48;;;;;;;5.47;1.52;;;4.60;99.90;;;2.93;100.00;99790.78;4900323;28;20072;-86
2023/02/02 00:52:58;;;;;;;12.50;1.63;;;4.60;99.90;;;2.94;100.00;99800.28;4861702;28;20040;-86
2023/02/02 00:55:50;;;;;;;9.68;1.00;;;4.60;99.90;;;2.96;100.00;99804.56;4816700;29;20214;-86
2023/02/02 00:58:16;;;;;;;6.38;1.98;;;;;;;2.95;100.00;99813.25;4845016;29;20040;-87
2023/02/02 01:00:56;;;;;;;8.25;1.67;;;;;;;2.93;100.00;99825.44;4787552;29;20054;-87
2023/02/02 01:03:24;;;;;;;9.07;1.52;;;4.60;99.90;;;2.95;100.00;99834.03;4860503;28;20077;-87
2023/02/02 01:08:23;;;;;;;18.20;2.17;;;4.60;99.90;;;2.93;100.00;99871.41;4988319;28;20497;-81
2023/02/02 01:10:49;;;;;;;4.65;1.17;;;4.60;99.90;;;2.88;100.00;99864.59;4936019;28;20108;-79
2023/02/02 01:13:15;;;;;;;8.35;1.40;;;4.60;99.90;;;2.90;100.00;99869.75;4950088;28;20423;-81
2023/02/02 01:15:53;;;;;;;5.78;1.52;;;4.60;99.90;;;2.93;100.00;99881.81;4970451;28;20045;-82
2023/02/02 01:18:28;;;;;;;4.93;1.00;;;4.60;99.90;;;2.99;100.00;99887.69;4919749;28;20041;-81
2023/02/02 01:21:06;;;;;;;8.43;1.42;;;4.60;99.90;;;3.01;100.00;99898.03;4967099;28;20030;-78
2023/02/02 01:23:33;;;;;;;10.02;1.52;;;4.60;99.90;;;3.00;100.00;99894.59;4975317;28;20038;-79
2023/02/02 01:26:03;;;;;;;9.20;1.60;;;4.70;99.90;;;3.04;100.00;99904.00;4948645;28;20034;-81
2023/02/02 01:28:38;;;;;;;8.30;1.75;;;4.70;99.90;;;3.08;100.00;99922.97;4947335;28;20458;-78
2023/02/02 01:31:16;;;;;;;12.02;2.05;;;4.70;99.90;;;3.10;100.00;99923.78;4933676;28;21567;-81
2023/02/02 01:33:44;;;;;;;10.00;2.15;;;4.80;99.90;;;3.13;100.00;99925.44;4959209;28;20506;-81
2023/02/02 01:36:14;;;;;;;11.30;1.55;;;4.80;99.90;;;3.15;100.00;99941.84;4945494;28;20144;-81
2023/02/02 01:38:42;;;;;;;18.35;2.75;;;4.80;99.90;;;3.16;100.00;99951.38;4947316;28;20062;-81
2023/02/02 01:41:24;;;;;;;13.63;2.05;;;4.80;99.90;;;3.19;100.00;99951.28;4946318;28;20030;-81
2023/02/02 01:44:03;;;;;;;12.55;1.88;;;4.80;99.90;;;3.19;100.00;99959.09;4928560;28;20528;-81
2023/02/02 01:46:33;;;;;;;12.95;2.13;;;4.80;99.90;;;3.16;100.00;99961.78;4927760;28;20034;-80
2023/02/02 01:49:26;;;;;;;24.75;3.03;;;4.80;99.90;;;3.14;100.00;99985.22;4941762;28;20026;-80
2023/02/02 01:52:01;;;;;;;11.57;1.70;;;4.80;99.90;;;3.13;100.00;99983.50;4953315;28;20038;-81
2023/02/02 01:54:34;;;;;;;10.63;2.17;;;4.80;99.90;;;3.14;100.00;100000.00;4975386;28;20092;-78
2023/02/02 01:57:11;;;;;;;13.73;2.75;;;4.80;99.90;;;3.12;100.00;100004.38;4960970;28;20292;-78
2023/02/02 01:59:37;;;;;;;16.85;2.40;;;4.80;99.90;;;3.08;100.00;99991.44;4912018;28;20050;-77
2023/02/02 02:02:03;;;;;;;17.67;2.78;;;4.70;99.90;;;3.10;100.00;100017.44;4901432;28;20041;-78
2023/02/02 02:04:34;;;;;;;11.80;2.28;;;4.70;99.90;;;3.06;100.00;100010.59;4925723;28;20077;-77
2023/02/02 02:07:01;;;;;;;9.82;1.77;;;4.80;99.90;;;3.08;100.00;100035.66;4946962;28;20041;-79
2023/02/02 02:09:27;;;;;;;15.80;1.83;;;4.70;99.90;;;3.08;100.00;100038.28;4958871;28;20542;-78
2023/02/02 02:11:54;;;;;;;11.60;2.15;;;4.70;99.90;;;3.08;100.00;100033.06;4958009;28;20119;-80
2023/02/02 02:17:55;;;;;;;17.58;2.35;;;4.70;99.90;;;3.05;100.00;100047.91;4955831;28;20098;-77
2023/02/02 02:28:01;;;;;;;21.20;2.72;;;4.60;99.90;;;2.92;100.00;100063.00;4971061;28;20041;-79
2023/02/02 02:30:53;;;;;;;16.08;2.58;;;4.60;99.90;;;2.89;100.00;100081.25;4967388;28;20041;-78
2023/02/02 02:33:51;;;;;;;12.35;2.20;;;4.60;99.90;;;2.85;100.00;100090.91;4964441;28;20557;-77
2023/02/02 02:37:02;;;;;;;22.48;3.03;;;4.50;99.90;;;2.81;100.00;100091.03;4970690;28;20448;-78
2023/02/02 02:39:56;;;;;;;16.13;2.30;;;4.50;99.90;;;2.80;100.00;100102.28;4956303;28;20117;-79
2023/02/02 02:42:27;;;;;;;20.00;3.22;;;4.50;99.90;;;2.76;100.00;100103.25;4962004;28;20453;-79
2023/02/02 02:44:56;;;;;;;15.25;2.88;;;4.40;99.90;;;2.74;100.00;100110.25;4932510;28;20099;-78
2023/02/02 02:47:22;;;;;;;18.10;3.30;;;4.40;99.90;;;2.75;100.00;100117.16;4957475;28;20806;-78
2023/02/02 02:49:48;;;;;;;12.15;2.13;;;4.40;99.90;;;2.74;100.00;100126.69;4950664;28;20038;-78
2023/02/02 02:52:22;;;;;;;19.65;2.15;;;4.40;99.90;;;2.73;100.00;100125.00;4910333;28;20035;-80
2023/02/02 02:55:14;;;;;;;13.63;2.35;;;4.40;99.90;;;2.71;100.00;100128.53;4897658;28;20074;-78
2023/02/02 02:58:00;;;;;;;14.15;2.70;;;4.40;99.90;;;2.72;100.00;100153.63;4947530;28;20105;-77
2023/02/02 03:01:24;;;;;;;11.57;2.80;;;4.40;99.90;;;2.67;100.00;100164.97;4956301;28;20042;-77
2023/02/02 03:04:37;;;;;;;11.20;1.63;;;4.40;99.90;;;2.65;100.00;100174.56;4947310;28;20050;-76
2023/02/02 03:07:37;;;;;;;15.05;1.65;;;4.30;99.90;;;2.63;100.00;100170.28;4972716;28;20042;-78
2023/02/02 03:10:07;;;;;;;10.93;2.03;;;4.30;99.90;;;2.58;100.00;100186.00;4973561;28;20026;-82
2023/02/02 03:12:46;;;;;;;7.90;1.60;;;4.30;99.90;;;2.58;100.00;100190.34;4930045;28;20430;-78
2023/02/02 03:15:14;;;;;;;12.48;2.58;;;4.30;99.90;;;2.57;100.00;100183.41;5005825;28;20046;-77
2023/02/02 03:17:42;;;;;;;8.45;1.77;;;4.30;99.90;;;2.58;100.00;100213.72;4930867;28;20057;-77
2023/02/02 03:20:09;;;;;;;11.35;1.77;;;4.30;99.90;;;2.57;100.00;100223.28;4931701;28;20041;-77
2023/02/02 03:22:35;;;;;;;8.13;1.77;;;4.30;99.90;;;2.55;100.00;100231.97;4921449;28;20402;-78
2023/02/02 03:25:06;;;;;;;9.52;1.92;;;4.30;99.90;;;2.54;100.00;100238.91;4970654;28;20030;-77
2023/02/02 03:27:32;;;;;;;12.43;1.95;;;4.30;99.90;;;2.52;100.00;100243.28;4936299;28;20038;-79
2023/02/02 03:29:58;;;;;;;22.17;2.00;;;4.30;99.90;;;2.55;100.00;100247.56;4912612;28;20038;-77
2023/02/02 03:32:24;;;;;;;6.60;1.52;;;4.30;99.90;;;2.58;100.00;100265.72;4955427;28;20490;-78
2023/02/02 03:34:50;;;;;;;8.00;1.45;;;4.30;99.90;;;2.62;100.00;100269.97;4953773;28;20042;-79
2023/02/02 03:37:16;;;;;;;18.33;2.13;;;4.30;99.90;;;2.67;100.00;100270.72;4922195;28;20121;-77
2023/02/02 03:39:42;;;;;;;15.18;1.95;;;4.30;99.90;;;2.63;100.00;100275.09;4968963;28;20487;-79
2023/02/02 03:42:10;;;;;;;12.43;2.38;;;4.30;99.90;;;2.60;100.00;100277.78;4926534;28;20037;-79
2023/02/02 03:44:35;;;;;;;16.55;3.25;;;4.30;99.90;;;2.61;100.00;100292.50;4964989;28;20108;-78
2023/02/02 03:47:01;;;;;;;20.40;2.22;;;4.30;99.90;;;2.60;100.00;100303.78;4946677;28;20042;-78
2023/02/02 03:49:27;;;;;;;14.18;2.35;;;4.30;99.90;;;2.58;100.00;100312.50;4948336;28;20117;-77
2023/02/02 03:51:53;;;;;;;19.48;2.38;;;4.30;99.90;;;2.57;100.00;100309.06;4928434;28;20122;-79
2023/02/02 03:54:19;;;;;;;10.85;1.75;;;4.30;99.90;;;2.54;100.00;100308.25;4934676;28;20066;-78
2023/02/02 03:56:44;;;;;;;17.35;2.65;;;4.30;99.90;;;2.51;100.00;100321.31;4938581;28;20041;-76
2023/02/02 03:59:16;;;;;;;13.18;1.63;;;4.20;99.90;;;2.49;100.00;100323.09;4942010;28;20030;-78
2023/02/02 04:01:41;;;;;;;20.83;2.30;;;4.20;99.90;;;2.47;100.00;100341.31;4967302;28;20026;-78
2023/02/02 04:04:07;;;;;;;10.20;1.23;;;4.20;99.90;;;2.43;100.00;100326.66;4934908;28;20038;-78
2023/02/02 04:06:33;;;;;;;14.88;1.83;;;4.20;99.90;;;2.40;100.00;100332.78;4940668;28;20046;-78
2023/02/02 04:08:59;;;;;;;11.52;1.80;;;4.10;99.90;;;2.38;100.00;100341.50;4947248;28;20862;-76
2023/02/02 04:11:29;;;;;;;6.18;1.25;;;4.10;99.90;;;2.38;100.00;100350.13;4955311;28;20121;-77
2023/02/02 04:13:55;;;;;;;14.20;1.50;;;4.10;99.90;;;2.35;100.00;100367.50;4960128;28;20022;-77
2023/02/02 04:16:21;;;;;;;11.07;1.65;;;4.00;99.90;;;2.30;100.00;100362.41;4955456;28;20051;-77
2023/02/02 04:18:47;;;;;;;14.75;1.90;;;4.00;99.90;;;2.24;100.00;100376.34;4937273;28;20037;-78
2023/02/02 04:21:13;;;;;;;10.10;1.80;;;4.00;99.90;;;2.26;100.00;100371.97;4937357;28;20028;-78
2023/02/02 04:23:38;;;;;;;9.75;1.60;;;4.00;99.90;;;2.24;100.00;100402.34;4941246;28;20034;-79
2023/02/02 04:26:10;;;;;;;9.77;1.85;;;4.00;99.90;;;2.25;100.00;100400.63;4956160;28;20084;-77
2023/02/02 04:28:36;;;;;;;13.13;1.95;;;4.00;99.90;;;2.30;100.00;100410.91;4921317;28;20516;-78
2023/02/02 04:31:02;;;;;;;13.93;1.98;;;4.00;99.90;;;2.29;100.00;100415.28;4957939;28;20087;-78
2023/02/02 04:33:28;;;;;;;20.13;2.42;;;4.00;99.90;;;2.28;100.00;100420.47;4981288;28;20057;-77
2023/02/02 04:35:54;;;;;;;10.93;1.48;;;4.00;99.90;;;2.29;100.00;100419.59;4923093;28;20090;-79
2023/02/02 04:38:27;;;;;;;10.45;1.63;;;4.00;99.90;;;2.32;100.00;100433.38;4924495;28;20038;-78
2023/02/02 04:40:53;;;;;;;13.00;1.60;;;4.00;99.90;;;2.31;100.00;100430.81;4941486;28;20030;-78
2023/02/02 04:43:19;;;;;;;13.93;1.35;;;4.00;99.90;;;2.28;100.00;100436.06;4959094;28;20044;-78
2023/02/02 04:45:44;;;;;;;11.73;1.70;;;4.00;99.90;;;2.25;100.00;100440.44;4915827;28;20089;-79
2023/02/02 04:48:10;;;;;;;22.25;2.55;;;4.00;99.90;;;2.23;100.00;100444.78;4959896;28;20049;-78
2023/02/02 04:50:36;;;;;;;17.05;2.28;;;4.00;99.90;;;2.26;100.00;100447.31;4926174;28;20498;-77
2023/02/02 04:53:05;;;;;;;13.40;1.85;;;4.00;99.90;;;2.25;100.00;100447.38;4967104;28;20048;-78
2023/02/02 04:55:36;;;;;;;11.63;1.30;;;4.00;99.90;;;2.22;100.00;100453.47;4947361;28;20059;-77
2023/02/02 04:58:02;;;;;;;12.32;1.80;;;3.90;99.90;;;2.15;100.00;100464.84;4914611;28;20426;-78
2023/02/02 05:00:28;;;;;;;11.05;1.98;;;3.90;99.90;;;2.16;100.00;100466.56;4927089;28;20037;-78
2023/02/02 05:02:59;;;;;;;9.75;2.20;;;3.90;99.90;;;2.11;100.00;100475.31;4953054;28;20630;-78
2023/02/02 05:05:25;;;;;;;9.55;2.20;;;3.80;99.90;;;2.10;100.00;100479.66;4969719;28;20053;-77
2023/02/02 05:07:53;;;;;;;25.45;1.92;;;3.80;99.90;;;2.10;100.00;100484.00;4990191;28;20522;-79
2023/02/02 05:10:19;;;;;;;11.18;2.08;;;3.80;99.90;;;2.09;100.00;100495.25;4909469;28;21099;-77
2023/02/02 05:12:45;;;;;;;7.13;1.30;;;3.80;99.90;;;2.03;100.00;100491.00;4922532;28;20030;-79
2023/02/02 05:15:15;;;;;;;7.97;1.48;;;3.80;99.90;;;2.01;100.00;100504.03;4938724;28;20141;-78
2023/02/02 05:17:41;;;;;;;8.32;1.20;;;3.70;99.90;;;2.00;100.00;100517.03;4941652;28;20042;-78
2023/02/02 05:20:08;;;;;;;8.88;1.65;;;3.70;99.90;;;1.95;100.00;100514.50;4975391;28;20140;-79
2023/02/02 05:22:34;;;;;;;10.63;1.70;;;3.70;99.90;;;1.94;100.00;100514.50;4945751;28;20067;-79
2023/02/02 05:25:00;;;;;;;8.90;1.30;;;3.70;99.90;;;1.95;100.00;100521.44;4955576;28;20602;-77
2023/02/02 05:27:31;;;;;;;13.95;1.73;;;3.70;99.90;;;1.94;100.00;100527.50;4915100;28;20026;-79
2023/02/02 05:29:56;;;;;;;9.32;1.45;;;3.60;99.90;;;1.91;100.00;100533.59;4916741;28;20043;-78
2023/02/02 05:32:22;;;;;;;8.77;1.70;;;3.60;99.90;;;1.86;100.00;100540.59;4927701;28;20088;-78
2023/02/02 05:34:48;;;;;;;14.75;2.20;;;3.60;99.90;;;1.83;100.00;100544.06;4944328;28;20092;-78
2023/02/02 05:37:14;;;;;;;6.88;0.98;;;3.50;99.90;;;1.79;100.00;100539.84;4938209;28;20770;-78
2023/02/02 05:39:40;;;;;;;6.63;1.38;;;3.50;99.90;;;1.79;100.00;100555.41;4982601;28;20038;-77
2023/02/02 05:42:08;;;;;;;14.23;1.42;;;3.60;99.90;;;1.77;100.00;100561.47;4959665;28;20042;-78
2023/02/02 05:44:34;;;;;;;10.32;1.83;;;3.50;99.90;;;1.74;99.77;100557.19;4954782;28;20030;-78
2023/02/02 05:47:00;;;;;;;12.85;1.48;;;3.50;99.90;;;1.77;100.00;100564.97;4956908;28;20045;-79
2023/02/02 05:49:26;;;;;;;6.00;1.02;;;3.50;99.90;;;1.74;99.38;100572.75;4958876;28;20121;-77
2023/02/02 05:51:56;;;;;;;8.13;0.95;;;3.50;99.90;;;1.76;99.26;100576.19;4911982;28;20038;-78
2023/02/02 05:54:29;;;;;;;7.70;0.98;;;3.50;99.90;;;1.76;100.00;100586.59;4959781;28;20050;-77
2023/02/02 05:56:55;;;;;;;17.33;1.48;;;3.50;99.90;;;1.80;100.00;100592.59;4966471;28;20044;-77
2023/02/02 05:59:23;;;;;;;6.97;1.65;;;3.50;99.90;;;1.82;100.00;100591.72;4955345;28;20053;-76
2023/02/02 06:01:48;;;;;;;9.52;1.27;;;3.50;99.90;;;1.88;100.00;100600.28;4937027;28;20027;-75
2023/02/02 06:04:16;;;;;;;11.50;2.28;;;3.50;99.90;;;1.83;100.00;100596.00;4954349;28;20442;-79
2023/02/02 06:06:42;;;;;;;10.70;1.08;;;3.50;99.90;;;1.78;100.00;100604.75;4910133;28;20053;-79
2023/02/02 06:09:10;;;;;;;8.30;1.25;;;3.50;99.90;;;1.81;100.00;100615.06;4949119;28;20033;-77
2023/02/02 06:11:35;;;;;;;8.68;1.83;;;3.50;99.90;;;1.81;100.00;100610.78;4946813;28;20252;-76
2023/02/02 06:14:01;;;;;;;10.50;1.48;;;3.50;99.90;;;1.76;100.00;100612.53;4982327;28;20495;-80
2023/02/02 06:16:27;;;;;;;11.57;1.80;;;3.50;99.90;;;1.79;100.00;100620.31;4958592;28;20042;-78
2023/02/02 06:18:53;;;;;;;10.20;1.20;;;3.50;99.90;;;1.74;100.00;100618.63;4962228;28;20035;-80
2023/02/02 06:21:24;;;;;;;16.95;1.58;;;3.50;99.90;;;1.69;100.00;100615.25;4949471;28;20034;-81
2023/02/02 06:23:51;;;;;;;13.27;1.55;;;3.40;99.90;;;1.73;100.00;100628.16;4917216;28;21830;-78
2023/02/02 06:26:17;;;;;;;6.18;1.20;;;3.50;99.90;;;1.71;100.00;100622.13;4936636;28;20034;-79
2023/02/02 06:28:48;;;;;;;15.27;1.90;;;3.40;99.90;;;1.66;100.00;100636.88;4956420;28;20037;-79
2023/02/02 06:31:17;;;;;;;8.05;1.85;;;3.40;99.90;;;1.62;100.00;100646.47;4957882;28;20050;-78
2023/02/02 06:33:51;;;;;;;5.80;1.08;;;3.40;99.90;;;1.58;100.00;100639.59;4980599;28;20037;-78
2023/02/02 06:36:17;;;;;;;4.95;0.90;;;3.40;99.90;;;1.56;100.00;100646.53;4963352;28;20039;-79
2023/02/02 06:38:43;;;;;;;5.93;1.05;;;3.40;99.90;;;1.60;100.00;100650.81;4968102;28;20041;-77
2023/02/02 06:41:09;;;;;;;9.30;1.08;;;3.30;99.90;;;1.57;100.00;100650.81;4960634;28;20049;-77
2023/02/02 06:43:35;;;;;;;8.48;1.23;;;3.30;99.90;;;1.53;100.00;100654.31;4972922;28;20483;-78
2023/02/02 06:46:01;;;;;;;12.55;1.50;;;3.30;99.90;;;1.54;100.00;100669.03;4944064;28;20045;-79
2023/02/02 06:48:27;;;;;;;4.80;1.00;;;3.30;99.90;;;1.54;99.43;100673.38;4938664;28;20110;-78
2023/02/02 06:50:56;;;;;;;9.63;1.30;;;3.30;99.90;;;1.50;98.88;100677.72;4925452;28;20538;-78
2023/02/02 06:53:22;;;;;;;6.15;1.60;;;3.30;99.90;;;1.50;98.41;100682.91;4936947;28;20038;-79
2023/02/02 06:56:14;;;;;;;10.73;1.15;;;3.30;99.90;;;1.51;98.51;100699.34;4965310;28;20088;-78
2023/02/02 06:58:40;;;;;;;5.30;1.08;;;3.20;99.90;;;1.47;98.21;100692.47;4910698;28;20038;-76
2023/02/02 07:01:12;;;;;;;11.65;1.60;;;3.20;99.90;;;1.49;98.09;100712.34;4965494;28;20426;-76
2023/02/02 07:03:39;;;;;;;7.60;1.50;;;3.20;99.90;;;1.45;98.47;100713.25;4939913;28;20042;-78
2023/02/02 07:06:25;;;;;;;5.57;1.20;;;3.20;99.90;;;1.47;98.95;100715.81;4962348;28;20066;-78
2023/02/02 07:08:54;;;;;;;10.63;1.88;;;3.20;99.90;;;1.52;99.47;100734.81;4981453;28;20026;-79
2023/02/02 07:11:21;;;;;;;7.97;1.00;;;3.20;99.90;;;1.55;99.59;100737.38;4924498;28;20088;-79
2023/02/02 07:13:48;;;;;;;6.47;1.00;;;3.30;99.90;;;1.54;99.40;100736.50;4940742;28;20452;-77
2023/02/02 07:16:16;;;;;;;11.63;0.95;;;3.30;99.90;;;1.55;99.31;100747.75;4936855;28;20138;-79
2023/02/02 07:18:47;;;;;;;6.35;1.10;;;3.30;99.90;;;1.59;99.80;100759.81;4950682;28;20038;-77
2023/02/02 07:21:19;;;;;;;5.82;1.05;;;3.30;99.90;;;1.56;99.97;100755.53;4945454;28;20030;-76
2023/02/02 07:23:46;;;;;;;5.75;1.00;;;3.30;99.90;;;1.56;100.00;100765.06;4906660;28;20137;-77
2023/02/02 07:26:17;;;;;;;10.93;1.38;;;3.30;99.90;;;1.57;100.00;100772.81;4943451;28;20042;-78
2023/02/02 07:28:44;;;;;;;4.57;1.08;;;3.30;99.90;;;1.54;100.00;100772.84;4937446;28;20036;-78
2023/02/02 07:31:22;;;;;;;8.23;1.48;;;3.30;99.90;;;1.54;99.68;100770.25;4949637;28;20035;-77
2023/02/02 07:33:48;;;;;;;12.10;1.20;;;3.30;99.90;;;1.53;100.00;100781.50;4956180;28;20042;-77
2023/02/02 07:36:20;;;;;;;9.80;1.00;;;3.30;99.90;;;1.52;100.00;100773.75;4974335;28;20076;-76
2023/02/02 07:38:49;;;;;;;7.88;1.60;;;3.30;99.90;;;1.49;100.00;100797.09;4977862;28;20048;-78
2023/02/02 07:41:15;;;;;;;6.65;1.20;;;3.20;99.90;;;1.47;100.00;100783.28;4952283;28;20034;-79
2023/02/02 07:43:45;;;;;;;6.22;1.98;;;3.20;99.90;;;1.49;100.00;100804.88;4930082;28;20050;-78
2023/02/02 07:46:13;;;;;;;8.90;1.33;;;3.20;99.90;;;1.47;100.00;100794.53;4941458;28;20422;-77
2023/02/02 07:48:41;;;;;;;9.27;1.02;;;3.20;99.90;;;1.48;100.00;100803.19;4944266;28;20084;-78
2023/02/02 07:51:21;;;;;;;8.32;1.30;;;3.20;99.90;;;1.46;99.81;100807.53;4954619;28;20033;-78
2023/02/02 07:53:51;;;;;;;4.22;0.88;;;3.20;99.90;;;1.50;99.33;100819.59;4955797;28;20044;-79
2023/02/02 07:56:25;;;;;;;5.50;1.20;;;3.20;99.90;;;1.55;100.00;100826.47;4917865;28;20069;-80
2023/02/02 07:58:54;;;;;;;4.95;1.33;;;3.20;99.90;;;1.55;99.50;100833.38;4919940;28;20044;-78
2023/02/02 08:01:21;;;;;;;12.50;1.83;;;3.30;99.90;;;1.57;99.19;100836.84;4944946;28;20111;-80
2023/02/02 08:03:49;;;;;;;12.02;1.08;;;3.30;99.90;;;1.53;98.49;100842.91;4950713;28;20174;-80
2023/02/02 08:06:33;;;;;;;8.80;1.02;;;3.30;99.90;;;1.57;98.37;100847.22;4971951;28;20034;-80
2023/02/02 08:09:01;;;;;;;6.60;0.90;;;3.30;99.90;;;1.56;97.55;100848.97;4947436;28;20034;-78
2023/02/02 08:11:27;;;;;;;10.85;1.00;;;3.30;99.90;;;1.55;96.91;100856.75;4928163;28;20088;-80
2023/02/02 08:13:59;;;;;;;5.68;0.95;;;3.30;99.90;;;1.59;96.65;100868.84;4957134;28;20117;-80
2023/02/02 08:16:27;;;;;;;6.97;0.98;;;3.30;99.90;;;1.59;96.45;100877.47;4954730;28;20035;-77
2023/02/02 08:18:53;;;;;;;7.70;1.10;;;3.30;99.90;;;1.65;96.29;100876.59;4954907;28;20040;-81
2023/02/02 08:21:21;;;;;;;7.20;1.33;;;3.30;99.90;;;1.68;95.88;100880.88;4937244;28;20038;-76
2023/02/02 08:23:47;;;;;;;5.60;1.20;;;3.40;99.90;;;1.73;96.19;100880.00;4953118;28;20038;-79
2023/02/02 08:26:23;;;;;;;6.10;1.10;;;3.40;99.90;;;1.68;95.70;100889.53;4954599;28;20040;-78
2023/02/02 08:28:54;;;;;;;8.18;1.17;;;3.40;99.90;;;1.77;94.98;100886.00;4969261;28;20042;-77
2023/02/02 08:31:24;;;;;;;9.02;1.10;;;3.40;99.90;;;1.81;95.17;100898.97;4944776;28;20042;-77
2023/02/02 08:33:52;;;;;;;12.85;1.40;;;3.50;99.90;;;1.91;95.81;100911.88;4968160;28;20042;-75
2023/02/02 08:36:23;;;;;;;4.72;0.90;;;3.50;99.90;;;1.76;94.77;100913.69;4929724;28;20415;-75
2023/02/02 08:38:50;;;;;;;7.63;1.15;;;3.40;99.90;;;1.58;94.36;100909.50;4956404;28;20043;-78
2023/02/02 08:41:20;;;;;;;12.77;1.15;;;3.30;99.90;;;1.47;93.97;100907.84;4942308;28;20532;-76
2023/02/02 08:43:51;;;;;;;6.30;0.77;;;3.20;99.90;;;1.40;94.34;100920.88;4973838;28;20030;-76
2023/02/02 08:46:19;;;;;;;7.22;0.70;;;3.10;99.90;;;1.36;93.46;100920.88;4952431;28;20038;-77
2023/02/02 08:48:45;;;;;;;4.18;0.47;;;3.20;99.90;;;1.39;93.25;100923.47;4983980;28;20037;-75
2023/02/02 08:51:17;;;;;;;4.60;0.50;;;3.10;99.90;;;1.36;93.21;100928.66;4979225;28;20637;-76
2023/02/02 08:53:44;;;;;;;10.15;0.70;;;3.10;99.90;;;1.39;93.07;100933.84;4950666;28;20390;-78
2023/02/02 08:56:14;;;;;;;9.82;0.65;;;3.10;99.90;;;1.42;92.99;100931.22;4943455;28;20065;-76
2023/02/02 08:58:54;;;;;;;3.80;0.40;;;3.10;99.90;;;1.52;92.88;100945.03;4934717;28;20051;-77
2023/02/02 09:01:31;;;;;;;9.13;0.77;;;3.20;99.90;;;1.64;93.69;100956.19;4959571;28;20026;-77
2023/02/02 09:04:03;;;;;;;2.35;0.70;;;3.20;99.90;;;1.65;94.65;100957.06;4983161;28;20038;-77
2023/02/02 09:06:40;;;;;;;8.23;1.23;;;3.20;99.90;;;1.68;95.92;100962.22;4954497;28;20039;-77
2023/02/02 09:09:09;;;;;;;12.18;1.05;;;3.30;99.90;;;1.83;96.99;100961.25;4973192;28;20038;-77
2023/02/02 09:11:36;;;;;;;6.15;1.20;;;3.40;99.90;;;1.88;97.06;100967.28;4971937;28;20026;-76
2023/02/02 09:14:06;;;;;;;7.15;1.13;;;3.40;99.90;;;1.93;96.23;100977.66;4921996;28;20039;-77
2023/02/02 09:16:38;;;;;;;4.80;1.00;;;3.50;99.90;;;2.12;96.33;100988.78;4942745;28;20046;-76
2023/02/02 09:19:05;;;;;;;5.82;0.80;;;3.60;99.90;;;1.98;95.06;100986.25;4957751;28;20499;-78
2023/02/02 09:21:35;;;;;;;9.80;1.20;;;3.60;99.90;;;1.94;95.42;100990.59;4955805;28;20499;-77
2023/02/02 09:24:12;;;;;;;14.75;1.35;;;3.60;99.90;;;1.97;96.36;101000.13;4950852;28;20052;-76
2023/02/02 09:26:47;;;;;;;4.22;0.80;;;3.60;99.90;;;1.93;95.96;101003.63;4958183;28;20037;-77
2023/02/02 09:29:19;;;;;;;4.78;0.43;;;3.50;99.90;;;1.79;95.22;101007.16;4959897;28;20110;-77
2023/02/02 09:31:45;;;;;;;3.38;0.65;;;3.40;99.90;;;1.73;96.24;101007.19;4937546;28;20121;-76
2023/02/02 09:34:16;;;;;;;14.65;1.17;;;3.40;99.90;;;1.71;96.95;101016.72;5000881;28;20038;-77
2023/02/02 09:36:45;;;;;;;4.13;0.57;;;3.40;99.90;;;1.67;96.72;101021.94;4979310;28;20697;-77
2023/02/02 09:39:17;;;;;;;5.03;0.55;;;3.40;99.90;;;1.97;97.14;101026.09;4969029;28;20032;-76
2023/02/02 09:42:49;;;;;;;4.88;1.02;;;3.50;99.90;;;1.80;95.89;101032.25;4958708;28;20031;-78
2023/02/02 09:45:53;;;;;;;3.35;0.55;;;3.40;99.90;;;1.77;96.40;101037.47;4982998;28;20399;-76
2023/02/02 09:49:03;;;;;;;3.03;0.60;;;3.40;99.90;;;1.69;96.94;101040.97;5001462;28;20104;-76
2023/02/02 09:51:41;;;;;;;6.05;0.50;;;3.40;99.90;;;1.85;97.91;101060.78;4940722;28;20077;-75
2023/02/02 09:54:22;;;;;;;2.95;0.40;;;3.40;99.90;;;1.78;98.09;101054.75;4972381;28;20505;-77
2023/02/02 09:56:54;;;;;;;2.42;0.38;;;3.40;99.90;;;1.62;97.81;101058.28;4957470;28;20080;-79
2023/02/02 09:59:32;;;;;;;5.07;0.70;;;3.20;99.90;;;1.55;97.52;101064.38;4959375;28;20030;-79
2023/02/02 10:02:33;;;;;;;2.95;0.80;;;3.30;99.90;;;1.64;98.07;101074.72;4953377;28;20030;-76
2023/02/02 10:05:22;;;;;;;3.10;0.65;;;3.20;99.90;;;1.68;97.97;101083.38;4965353;28;20169;-77
2023/02/02 10:07:57;;;;;;;3.78;0.40;;;3.30;99.90;;;1.92;98.42;101088.44;4974556;28;20030;-78
2023/02/02 10:10:37;;;;;;;5.80;0.50;;;3.50;99.90;;;2.14;98.33;101091.78;4960346;28;20045;-77
2023/02/02 10:13:21;;;;;;;3.42;0.63;;;3.70;99.90;;;2.42;97.91;101102.00;4963276;28;20038;-75
2023/02/02 10:16:15;;;;;;;4.20;0.47;;;3.90;99.90;;;2.43;96.77;101107.19;4993143;28;20058;-77
2023/02/02 10:18:53;;;;;;;4.15;0.80;;;3.90;99.90;;;2.33;96.19;101107.25;4967826;28;20065;-75
2023/02/02 10:22:05;;;;;;;3.13;0.38;;;3.90;99.90;;;2.11;95.67;101111.72;4975461;28;20096;-78
2023/02/02 10:24:34;;;;;;;2.60;0.60;;;3.40;99.90;;;2.04;96.06;101114.34;4964341;28;20042;-76
2023/02/02 10:27:18;;;;;;;4.03;0.52;;;3.70;99.90;;;1.95;94.46;101130.00;4975193;28;20172;-76
2023/02/02 10:29:59;;;;;;;3.58;0.28;;;3.70;99.90;;;2.04;92.43;101140.31;4961018;28;20041;-75
2023/02/02 10:33:13;;;;;;;2.75;0.40;;;3.80;99.90;;;2.13;91.52;101155.00;4983835;28;20027;-75
2023/02/02 10:35:59;;;;;;;2.53;0.38;;;3.80;99.90;;;2.22;91.10;101157.53;4983422;28;20049;-75
2023/02/02 10:39:02;;;;;;;3.08;0.40;;;3.90;99.90;;;2.32;90.73;101154.91;4983829;28;20042;-75
2023/02/02 10:41:57;;;;;;;3.08;0.50;;;3.90;99.90;;;2.42;88.76;101169.59;4966442;28;20073;-74
2023/02/02 10:45:06;;;;;;;2.13;0.30;;;4.00;99.90;;;2.55;89.08;101165.16;4986891;28;20687;-76
2023/02/02 10:47:33;;;;;;;3.17;0.30;;;4.10;99.90;;;2.52;87.89;101172.97;4977816;28;20046;-76
2023/02/02 10:50:13;;;;;;;3.47;0.52;;;4.10;99.90;;;2.41;86.90;101173.03;4962970;28;20419;-75
2023/02/02 10:52:54;;;;;;;5.43;0.47;;;4.00;99.90;;;2.26;86.67;101180.03;4977597;28;20034;-76
2023/02/02 10:55:44;;;;;;;3.17;0.60;;;3.90;99.90;;;2.32;86.88;101189.56;4970508;28;20058;-75
2023/02/02 10:58:10;;;;;;;1.60;0.22;;;4.00;99.90;;;2.38;87.02;101186.06;4970175;28;20057;-75
2023/02/02 11:00:52;;;;;;;3.40;0.38;;;4.10;99.90;;;2.72;87.07;101194.53;4982279;28;20045;-75
2023/02/02 11:03:25;;;;;;;0.55;0.20;;;4.20;99.90;;;2.78;85.93;101204.88;4956670;28;20493;-76
2023/02/02 11:08:51;;;;;;;4.35;0.50;;;4.20;99.90;;;2.57;84.09;101202.41;4988602;28;20038;-77